createdAt,value
2023-01-03T00:00:16.302Z,30.102
2023-01-03T00:05:19.128Z,30.103
2023-01-03T00:10:19.124Z,30.105
2023-01-03T00:15:16.059Z,30.107
2023-01-03T00:20:16.192Z,30.109
2023-01-03T00:25:19.135Z,30.111
2023-01-03T00:30:16.228Z,30.110
2023-01-03T00:35:19.221Z,30.109
2023-01-03T00:40:19.143Z,30.109
2023-01-03T00:45:19.737Z,30.110
2023-01-03T00:50:19.193Z,30.108
2023-01-03T00:55:16.048Z,30.107
2023-01-03T01:00:19.224Z,30.111
2023-01-03T01:05:19.223Z,30.112
2023-01-03T01:10:16.201Z,30.113
2023-01-03T01:15:19.228Z,30.113
2023-01-03T01:20:19.133Z,30.113
2023-01-03T01:25:19.136Z,30.114
2023-01-03T01:30:19.178Z,30.114
2023-01-03T01:35:15.997Z,30.115
2023-01-03T01:40:19.240Z,30.118
2023-01-03T01:45:19.214Z,30.120
2023-01-03T01:50:16.244Z,30.122
2023-01-03T01:55:19.278Z,30.123
2023-01-03T02:00:16.250Z,30.123
2023-01-03T02:05:19.353Z,30.126
2023-01-03T02:10:16.203Z,30.126
2023-01-03T02:15:16.245Z,30.126
2023-01-03T02:20:16.237Z,30.126
2023-01-03T02:25:19.195Z,30.128
2023-01-03T02:30:16.257Z,30.129
2023-01-03T02:35:19.279Z,30.129
2023-01-03T02:40:19.208Z,30.131
2023-01-03T02:45:19.219Z,30.131
2023-01-03T02:50:16.099Z,30.131
2023-01-03T02:55:16.281Z,30.132
2023-01-03T03:00:16.256Z,30.131
2023-01-03T03:05:19.202Z,30.132
2023-01-03T03:10:16.301Z,30.134
2023-01-03T03:15:19.291Z,30.133
2023-01-03T03:20:19.235Z,30.134
2023-01-03T03:25:16.278Z,30.135
2023-01-03T03:30:19.231Z,30.135
2023-01-03T03:35:19.271Z,30.136
2023-01-03T03:40:19.279Z,30.135
2023-01-03T03:45:19.219Z,30.136
2023-01-03T03:50:19.233Z,30.136
2023-01-03T03:55:19.201Z,30.136
2023-01-03T04:00:16.332Z,30.136
2023-01-03T04:05:16.302Z,30.134
2023-01-03T04:10:19.347Z,30.134
2023-01-03T04:15:19.297Z,30.133
2023-01-03T04:20:19.246Z,30.132
2023-01-03T04:25:19.248Z,30.132
2023-01-03T04:30:19.231Z,30.129
2023-01-03T04:35:16.274Z,30.127
2023-01-03T04:40:19.308Z,30.126
2023-01-03T04:45:19.317Z,30.126
2023-01-03T04:50:19.302Z,30.124
2023-01-03T04:55:16.274Z,30.120
2023-01-03T05:00:18.525Z,30.117
2023-01-03T05:05:18.554Z,30.116
2023-01-03T05:10:18.570Z,30.119
2023-01-03T05:15:18.524Z,30.119
2023-01-03T05:20:18.509Z,30.120
2023-01-03T05:25:15.592Z,30.122
2023-01-03T05:30:18.515Z,30.123
2023-01-03T05:35:18.570Z,30.120
2023-01-03T05:40:15.548Z,30.118
2023-01-03T05:45:15.614Z,30.119
2023-01-03T05:50:18.561Z,30.116
2023-01-03T05:55:18.575Z,30.120
2023-01-03T06:00:18.545Z,30.122
2023-01-03T06:05:18.598Z,30.119
2023-01-03T06:10:18.549Z,30.117
2023-01-03T06:15:18.559Z,30.116
2023-01-03T06:20:15.587Z,30.118
2023-01-03T06:25:18.603Z,30.118
2023-01-03T06:30:18.591Z,30.120
2023-01-03T06:35:18.531Z,30.123
2023-01-03T06:40:18.545Z,30.123
2023-01-03T06:45:15.608Z,30.123
2023-01-03T06:50:18.602Z,30.127
2023-01-03T06:55:18.550Z,30.130
2023-01-03T07:00:18.561Z,30.133
2023-01-03T07:05:15.589Z,30.138
2023-01-03T07:10:15.611Z,30.139
2023-01-03T07:15:15.599Z,30.138
2023-01-03T07:20:18.669Z,30.140
2023-01-03T07:25:15.457Z,30.142
2023-01-03T07:30:18.609Z,30.139
2023-01-03T07:35:18.616Z,30.138
2023-01-03T07:40:18.614Z,30.138
2023-01-03T07:45:18.589Z,30.137
2023-01-03T07:50:15.638Z,30.135
2023-01-03T07:55:18.605Z,30.131
2023-01-03T08:00:18.588Z,30.130
2023-01-03T08:05:18.732Z,30.125
2023-01-03T08:10:18.596Z,30.121
2023-01-03T08:15:18.635Z,30.120
2023-01-03T08:20:15.490Z,30.124
2023-01-03T08:25:18.635Z,30.126
2023-01-03T08:30:15.661Z,30.124
2023-01-03T08:35:18.667Z,30.123
2023-01-03T08:40:18.666Z,30.116
2023-01-03T08:45:18.594Z,30.114
2023-01-03T08:50:15.674Z,30.112
2023-01-03T08:55:18.698Z,30.113
2023-01-03T09:00:15.676Z,30.111
2023-01-03T09:05:18.610Z,30.111
2023-01-03T09:10:18.613Z,30.115
2023-01-03T09:15:15.460Z,30.111
2023-01-03T09:20:15.701Z,30.113
2023-01-03T09:25:18.667Z,30.108
2023-01-03T09:30:15.687Z,30.104
2023-01-03T09:35:18.654Z,30.107
2023-01-03T09:40:15.455Z,30.108
2023-01-03T09:45:15.693Z,30.105
2023-01-03T09:50:31.890Z,30.103
2023-01-03T09:55:18.670Z,30.110
2023-01-03T10:00:18.633Z,30.108
2023-01-03T10:05:18.689Z,30.108
2023-01-03T10:10:18.692Z,30.108
2023-01-03T10:15:18.670Z,30.108
2023-01-03T10:20:18.629Z,30.112
2023-01-03T10:25:16.171Z,30.114
2023-01-03T10:30:15.726Z,30.111
2023-01-03T10:35:18.728Z,30.111
2023-01-03T10:40:18.671Z,30.110
2023-01-03T10:45:15.733Z,30.112
2023-01-03T10:50:15.691Z,30.110
2023-01-03T10:55:18.749Z,30.114
2023-01-03T11:00:18.780Z,30.118
2023-01-03T11:05:18.728Z,30.121
2023-01-03T11:10:15.701Z,30.118
2023-01-03T11:15:15.717Z,30.115
2023-01-03T11:20:18.707Z,30.111
2023-01-03T11:25:18.712Z,30.112
2023-01-03T11:30:18.690Z,30.110
2023-01-03T11:35:24.680Z,30.104
2023-01-03T11:40:18.707Z,30.102
2023-01-03T11:45:18.745Z,30.099
2023-01-03T11:50:18.665Z,30.094
2023-01-03T11:55:18.727Z,30.094
2023-01-03T12:00:18.712Z,30.094
2023-01-03T12:05:18.789Z,30.094
2023-01-03T12:10:15.798Z,30.095
2023-01-03T12:15:18.701Z,30.095
2023-01-03T12:20:15.627Z,30.094
2023-01-03T12:25:18.785Z,30.093
2023-01-03T12:30:15.772Z,30.088
2023-01-03T12:35:18.760Z,30.088
2023-01-03T12:40:18.710Z,30.083
2023-01-03T12:45:15.731Z,30.084
2023-01-03T12:50:18.745Z,30.080
2023-01-03T12:55:18.762Z,30.076
2023-01-03T13:00:19.269Z,30.076
2023-01-03T13:05:18.790Z,30.075
2023-01-03T13:10:18.708Z,30.073
2023-01-03T13:15:18.716Z,30.075
2023-01-03T13:20:18.754Z,30.071
2023-01-03T13:25:18.778Z,30.070
2023-01-03T13:30:18.747Z,30.075
2023-01-03T13:35:15.741Z,30.075
2023-01-03T13:40:18.777Z,30.074
2023-01-03T13:45:18.813Z,30.074
2023-01-03T13:50:18.774Z,30.070
2023-01-03T13:55:18.774Z,30.072
2023-01-03T14:00:18.755Z,30.074
2023-01-03T14:05:18.788Z,30.072
2023-01-03T14:10:18.740Z,30.069
2023-01-03T14:15:25.405Z,30.068
2023-01-03T14:20:15.773Z,30.068
2023-01-03T14:25:15.832Z,30.071
2023-01-03T14:30:18.782Z,30.067
2023-01-03T14:35:18.796Z,30.070
2023-01-03T14:40:15.790Z,30.068
2023-01-03T14:45:15.826Z,30.066
2023-01-03T14:50:18.781Z,30.066
2023-01-03T14:55:18.756Z,30.063
2023-01-03T15:00:15.809Z,30.060
2023-01-03T15:05:15.845Z,30.058
2023-01-03T15:10:15.846Z,30.057
2023-01-03T15:15:15.826Z,30.053
2023-01-03T15:20:18.811Z,30.046
2023-01-03T15:25:18.819Z,30.043
2023-01-03T15:30:15.958Z,30.039
2023-01-03T15:35:18.814Z,30.037
2023-01-03T15:40:15.826Z,30.035
2023-01-03T15:45:15.854Z,30.028
2023-01-03T15:50:15.860Z,30.020
2023-01-03T15:55:18.903Z,30.018
2023-01-03T16:00:18.820Z,30.014
2023-01-03T16:05:22.382Z,30.006
2023-01-03T16:10:15.843Z,30.004
2023-01-03T16:15:15.844Z,30.000
2023-01-03T16:20:18.903Z,29.993
2023-01-03T16:25:18.832Z,29.987
2023-01-03T16:30:15.837Z,29.981
2023-01-03T16:35:18.876Z,29.980
2023-01-03T16:40:18.828Z,29.976
2023-01-03T16:45:18.785Z,29.970
2023-01-03T16:50:18.791Z,29.966
2023-01-03T16:55:18.831Z,29.967
2023-01-03T17:00:15.882Z,29.965
2023-01-03T17:05:15.909Z,29.963
2023-01-03T17:10:18.826Z,29.958
2023-01-03T17:15:18.870Z,29.961
2023-01-03T17:20:15.893Z,29.952
2023-01-03T17:25:15.901Z,29.952
2023-01-03T17:30:18.880Z,29.949
2023-01-03T17:35:15.920Z,29.947
2023-01-03T17:40:18.877Z,29.947
2023-01-03T17:45:15.910Z,29.944
2023-01-03T17:50:18.944Z,29.939
2023-01-03T17:55:18.858Z,29.935
2023-01-03T18:00:18.869Z,29.930
2023-01-03T18:05:26.604Z,29.928
2023-01-03T18:10:18.901Z,29.925
2023-01-03T18:15:18.868Z,29.920
2023-01-03T18:20:15.883Z,29.913
2023-01-03T18:25:22.435Z,29.910
2023-01-03T18:30:18.869Z,29.902
2023-01-03T18:35:24.371Z,29.898
2023-01-03T18:40:18.875Z,29.889
2023-01-03T18:45:18.890Z,29.882
2023-01-03T18:50:18.869Z,29.876
2023-01-03T18:55:18.876Z,29.873
2023-01-03T19:00:18.848Z,29.867
2023-01-03T19:05:18.847Z,29.861
2023-01-03T19:10:15.907Z,29.856
2023-01-03T19:15:18.938Z,29.851
2023-01-03T19:20:24.709Z,29.848
2023-01-03T19:25:18.875Z,29.846
2023-01-03T19:30:15.898Z,29.843
2023-01-03T19:35:18.943Z,29.839
2023-01-03T19:40:18.908Z,29.835
2023-01-03T19:45:15.972Z,29.830
2023-01-03T19:50:18.893Z,29.824
2023-01-03T19:55:18.975Z,29.822
2023-01-03T20:00:15.969Z,29.822
2023-01-03T20:05:18.923Z,29.818
2023-01-03T20:10:18.867Z,29.815
2023-01-03T20:15:18.871Z,29.815
2023-01-03T20:20:18.940Z,29.815
2023-01-03T20:25:18.944Z,29.812
2023-01-03T20:30:18.923Z,29.809
2023-01-03T20:36:06.615Z,29.812
2023-01-03T20:40:15.967Z,29.816
2023-01-03T20:45:18.944Z,29.818
2023-01-03T20:50:18.891Z,29.814
2023-01-03T20:55:18.943Z,29.816
2023-01-03T21:00:16.049Z,29.813
2023-01-03T21:05:18.960Z,29.812
2023-01-03T21:10:19.013Z,29.813
2023-01-03T21:15:18.908Z,29.811
2023-01-03T21:20:18.939Z,29.808
2023-01-03T21:25:15.987Z,29.805
2023-01-03T21:30:15.980Z,29.803
2023-01-03T21:35:15.998Z,29.803
2023-01-03T21:40:15.983Z,29.801
2023-01-03T21:45:16.063Z,29.801
2023-01-03T21:50:16.010Z,29.797
2023-01-03T21:55:19.009Z,29.797
2023-01-03T22:00:18.939Z,29.796
2023-01-03T22:05:18.953Z,29.799
2023-01-03T22:10:18.957Z,29.800
2023-01-03T22:15:16.057Z,29.793
2023-01-03T22:20:16.049Z,29.789
2023-01-03T22:25:15.998Z,29.792
2023-01-03T22:30:18.987Z,29.794
2023-01-03T22:35:15.985Z,29.798
2023-01-03T22:40:16.055Z,29.800
2023-01-03T22:45:19.021Z,29.795
2023-01-03T22:50:15.996Z,29.793
2023-01-03T22:55:16.014Z,29.795
2023-01-03T23:00:16.316Z,29.805
2023-01-03T23:05:19.184Z,29.806
2023-01-03T23:10:16.102Z,29.805
2023-01-03T23:15:19.038Z,29.804
2023-01-03T23:20:16.018Z,29.802
2023-01-03T23:25:19.025Z,29.797
2023-01-03T23:30:16.047Z,29.793
2023-01-03T23:35:19.038Z,29.792
2023-01-03T23:40:19.057Z,29.788
2023-01-03T23:45:16.046Z,29.785
2023-01-03T23:50:19.068Z,29.788
2023-01-03T23:55:16.059Z,29.788
